createdAt,value
2022-07-29T00:02:27.314Z,14.15
2022-07-29T00:04:54.573Z,13.59
2022-07-29T00:07:21.343Z,14.39
2022-07-29T00:09:50.902Z,13.31
2022-07-29T00:12:26.778Z,14.16
2022-07-29T00:14:57.830Z,13.96
2022-07-29T00:17:25.377Z,13.25
2022-07-29T00:19:52.595Z,13.66
2022-07-29T00:22:19.876Z,13.51
2022-07-29T00:24:49.404Z,13.76
2022-07-29T00:27:16.102Z,13.62
2022-07-29T00:29:42.801Z,13.30
2022-07-29T00:32:09.372Z,13.51
2022-07-29T00:34:36.029Z,13.55
2022-07-29T00:37:02.728Z,13.64
2022-07-29T00:39:30.083Z,13.57
2022-07-29T00:41:56.695Z,13.63
2022-07-29T00:44:23.431Z,13.45
2022-07-29T00:46:50.098Z,13.16
2022-07-29T00:49:16.887Z,13.60
2022-07-29T00:51:44.092Z,13.65
2022-07-29T00:54:10.769Z,13.69
2022-07-29T00:56:37.530Z,13.98
2022-07-29T00:59:04.222Z,13.87
2022-07-29T01:01:30.763Z,13.79
2022-07-29T01:03:57.576Z,13.76
2022-07-29T01:06:25.591Z,13.68
2022-07-29T01:08:52.519Z,13.67
2022-07-29T01:11:19.622Z,13.43
2022-07-29T01:13:48.412Z,13.75
2022-07-29T01:16:21.992Z,13.49
2022-07-29T01:18:53.820Z,14.12
2022-07-29T01:21:45.806Z,14.35
2022-07-29T01:24:31.413Z,14.03
2022-07-29T01:27:22.758Z,14.51
2022-07-29T01:29:56.146Z,14.38
2022-07-29T01:32:29.559Z,14.48
2022-07-29T01:35:20.018Z,14.31
2022-07-29T01:37:56.504Z,14.13
2022-07-29T01:40:28.465Z,14.53
2022-07-29T01:42:58.149Z,14.56
2022-07-29T01:45:35.286Z,14.30
2022-07-29T01:48:13.202Z,14.76
2022-07-29T01:51:02.731Z,14.42
2022-07-29T01:53:37.940Z,14.36
2022-07-29T01:56:07.494Z,14.37
2022-07-29T01:58:38.041Z,14.44
2022-07-29T02:01:07.439Z,14.22
2022-07-29T02:03:36.003Z,14.38
2022-07-29T02:06:05.475Z,14.05
2022-07-29T02:08:34.167Z,13.82
2022-07-29T02:11:03.058Z,14.10
2022-07-29T02:13:32.367Z,14.13
2022-07-29T02:16:00.527Z,13.94
2022-07-29T02:18:29.394Z,14.07
2022-07-29T02:20:57.322Z,14.10
2022-07-29T02:23:25.812Z,14.51
2022-07-29T02:25:57.850Z,14.42
2022-07-29T02:28:28.477Z,13.82
2022-07-29T02:30:59.427Z,14.43
2022-07-29T02:33:26.658Z,14.12
2022-07-29T02:35:53.681Z,13.80
2022-07-29T02:38:22.083Z,13.95
2022-07-29T02:40:51.068Z,13.76
2022-07-29T02:43:18.783Z,13.99
2022-07-29T02:45:48.313Z,13.74
2022-07-29T02:48:25.483Z,13.99
2022-07-29T02:51:02.478Z,14.29
2022-07-29T02:53:34.182Z,13.98
2022-07-29T02:56:07.622Z,13.85
2022-07-29T02:58:47.811Z,14.06
2022-07-29T03:01:23.441Z,14.18
2022-07-29T03:03:53.807Z,13.63
2022-07-29T03:06:30.936Z,13.76
2022-07-29T03:09:12.485Z,13.58
2022-07-29T03:11:46.099Z,13.92
2022-07-29T03:14:19.925Z,13.73
2022-07-29T03:16:47.393Z,13.42
2022-07-29T03:19:14.796Z,13.42
2022-07-29T03:21:41.471Z,13.21
2022-07-29T03:24:10.477Z,13.37
2022-07-29T03:26:37.886Z,13.82
2022-07-29T03:29:04.821Z,13.43
2022-07-29T03:31:31.788Z,13.38
2022-07-29T03:34:00.475Z,13.44
2022-07-29T03:36:27.410Z,13.10
2022-07-29T03:38:54.304Z,13.18
2022-07-29T03:41:23.806Z,13.03
2022-07-29T03:43:51.955Z,13.19
2022-07-29T03:46:20.297Z,13.64
2022-07-29T03:48:51.568Z,13.49
2022-07-29T03:51:18.448Z,13.24
2022-07-29T03:54:01.513Z,13.13
2022-07-29T03:56:30.534Z,12.86
2022-07-29T03:58:57.711Z,13.67
2022-07-29T04:01:25.708Z,13.31
2022-07-29T04:03:52.506Z,13.21
2022-07-29T04:06:19.145Z,13.18
2022-07-29T04:08:45.939Z,13.36
2022-07-29T04:11:13.333Z,13.42
2022-07-29T04:13:40.052Z,13.23
2022-07-29T04:16:06.697Z,13.50
2022-07-29T04:18:33.585Z,13.39
2022-07-29T04:21:00.141Z,13.19
2022-07-29T04:23:26.809Z,13.29
2022-07-29T04:25:53.554Z,13.29
2022-07-29T04:28:20.186Z,13.36
2022-07-29T04:30:46.817Z,13.28
2022-07-29T04:33:13.592Z,13.27
2022-07-29T04:35:50.459Z,12.74
2022-07-29T04:38:19.491Z,12.92
2022-07-29T04:40:47.155Z,13.25
2022-07-29T04:43:16.779Z,12.80
2022-07-29T04:45:49.503Z,12.71
2022-07-29T04:48:16.072Z,13.38
2022-07-29T04:50:42.845Z,13.28
2022-07-29T04:53:09.793Z,13.43
2022-07-29T04:55:36.478Z,13.34
2022-07-29T04:58:06.006Z,13.36
2022-07-29T05:00:33.201Z,13.75
2022-07-29T05:03:00.385Z,13.58
2022-07-29T05:05:27.131Z,13.16
2022-07-29T05:07:53.921Z,12.92
2022-07-29T05:10:20.619Z,12.96
2022-07-29T05:12:47.199Z,13.11
2022-07-29T05:15:14.462Z,12.54
2022-07-29T05:17:41.273Z,12.69
2022-07-29T05:20:08.445Z,13.08
2022-07-29T05:22:35.176Z,13.10
2022-07-29T05:25:06.992Z,13.26
2022-07-29T05:27:37.029Z,13.16
2022-07-29T05:30:04.350Z,14.12
2022-07-29T05:32:31.033Z,14.03
2022-07-29T05:34:57.721Z,14.58
2022-07-29T05:37:24.538Z,14.42
2022-07-29T05:39:56.718Z,14.89
2022-07-29T05:42:25.265Z,15.46
2022-07-29T05:44:52.254Z,15.51
2022-07-29T05:47:18.930Z,15.89
2022-07-29T05:49:45.571Z,15.90
2022-07-29T05:52:12.307Z,16.57
2022-07-29T05:54:38.895Z,16.23
2022-07-29T05:57:05.679Z,17.00
2022-07-29T05:59:38.897Z,17.22
2022-07-29T06:02:05.882Z,17.57
2022-07-29T06:04:33.833Z,17.50
2022-07-29T06:07:00.568Z,17.20
2022-07-29T06:09:29.238Z,17.74
2022-07-29T06:11:56.505Z,17.85
2022-07-29T06:14:23.191Z,17.83
2022-07-29T06:16:50.051Z,18.02
2022-07-29T06:19:16.981Z,17.89
2022-07-29T06:21:44.839Z,18.65
2022-07-29T06:24:12.472Z,18.60
2022-07-29T06:26:40.142Z,17.63
2022-07-29T06:29:08.269Z,17.72
2022-07-29T06:31:36.284Z,17.64
2022-07-29T06:34:12.481Z,16.94
2022-07-29T06:36:41.571Z,16.97
2022-07-29T06:39:08.962Z,17.38
2022-07-29T06:41:35.855Z,17.35
2022-07-29T06:44:09.584Z,17.05
2022-07-29T06:46:36.300Z,17.39
2022-07-29T06:49:03.415Z,16.95
2022-07-29T06:51:30.463Z,16.95
2022-07-29T06:54:00.394Z,16.86
2022-07-29T06:56:38.941Z,16.67
2022-07-29T06:59:09.017Z,16.53
2022-07-29T07:01:40.989Z,16.66
2022-07-29T07:04:07.891Z,16.81
2022-07-29T07:06:34.441Z,16.75
2022-07-29T07:09:02.476Z,16.62
2022-07-29T07:11:29.555Z,16.86
2022-07-29T07:14:02.279Z,16.96
2022-07-29T07:16:30.863Z,17.21
2022-07-29T07:18:57.495Z,17.70
2022-07-29T07:21:24.403Z,17.54
2022-07-29T07:23:51.091Z,18.04
2022-07-29T07:26:17.745Z,17.81
2022-07-29T07:28:44.400Z,17.88
2022-07-29T07:31:14.577Z,17.95
2022-07-29T07:33:41.266Z,18.27
2022-07-29T07:36:08.155Z,18.45
2022-07-29T07:38:36.485Z,18.48
2022-07-29T07:41:03.924Z,18.32
2022-07-29T07:43:30.701Z,18.13
2022-07-29T07:45:58.901Z,18.47
2022-07-29T07:48:25.652Z,18.18
2022-07-29T07:50:52.293Z,18.30
2022-07-29T07:53:19.391Z,18.31
2022-07-29T07:56:09.897Z,19.09
2022-07-29T07:58:33.716Z,19.43
2022-07-29T08:01:00.421Z,19.86
2022-07-29T08:03:27.141Z,20.23
2022-07-29T08:05:54.121Z,20.03
2022-07-29T08:08:21.311Z,19.98
2022-07-29T08:10:47.921Z,19.58
2022-07-29T08:13:14.618Z,19.17
2022-07-29T08:15:41.512Z,19.65
2022-07-29T08:18:09.069Z,19.38
2022-07-29T08:20:36.958Z,19.38
2022-07-29T08:23:04.639Z,19.59
2022-07-29T08:25:33.301Z,20.24
2022-07-29T08:28:04.619Z,20.08
2022-07-29T08:30:32.767Z,20.41
2022-07-29T08:32:59.918Z,20.41
2022-07-29T08:35:26.755Z,20.37
2022-07-29T08:37:54.372Z,20.34
2022-07-29T08:40:32.046Z,20.28
2022-07-29T08:43:04.713Z,20.22
2022-07-29T08:45:47.414Z,20.42
2022-07-29T08:48:17.641Z,20.35
2022-07-29T08:50:54.850Z,20.79
2022-07-29T08:53:40.372Z,20.47
2022-07-29T08:59:46.783Z,20.22
2022-07-29T09:02:33.336Z,20.06
2022-07-29T09:05:05.966Z,18.84
2022-07-29T09:07:34.723Z,19.74
2022-07-29T09:10:02.827Z,19.83
2022-07-29T09:12:37.574Z,19.73
2022-07-29T09:15:07.376Z,19.70
2022-07-29T09:17:44.469Z,19.25
2022-07-29T09:20:21.311Z,19.39
2022-07-29T09:22:48.268Z,19.22
2022-07-29T09:25:15.642Z,19.33
2022-07-29T09:27:51.275Z,19.25
2022-07-29T09:30:31.508Z,19.03
2022-07-29T09:33:01.141Z,19.53
2022-07-29T09:35:29.069Z,19.69
2022-07-29T09:37:56.243Z,19.12
2022-07-29T09:40:25.650Z,19.31
2022-07-29T09:42:52.988Z,19.85
2022-07-29T09:45:31.050Z,19.63
2022-07-29T09:47:58.621Z,19.67
2022-07-29T09:50:43.471Z,19.19
2022-07-29T09:53:11.058Z,19.55
2022-07-29T09:55:52.061Z,18.87
2022-07-29T09:58:21.287Z,19.34
2022-07-29T10:00:49.812Z,19.87
2022-07-29T10:03:17.812Z,19.18
2022-07-29T10:05:45.966Z,19.67
2022-07-29T10:08:13.745Z,19.35
2022-07-29T10:10:45.155Z,19.94
2022-07-29T10:13:15.996Z,20.19
2022-07-29T10:15:45.761Z,19.39
2022-07-29T10:18:14.238Z,19.82
2022-07-29T10:20:43.300Z,20.15
2022-07-29T10:23:10.907Z,19.65
2022-07-29T10:25:37.739Z,20.22
2022-07-29T10:28:06.752Z,20.33
2022-07-29T10:30:34.005Z,20.57
2022-07-29T10:33:18.863Z,19.71
2022-07-29T10:36:10.027Z,20.69
2022-07-29T10:38:55.907Z,20.97
2022-07-29T10:41:44.058Z,20.92
2022-07-29T10:44:23.828Z,20.31
2022-07-29T10:46:52.690Z,20.88
2022-07-29T10:49:24.813Z,20.70
2022-07-29T10:54:51.894Z,20.68
2022-07-29T10:57:26.022Z,21.44
2022-07-29T11:00:16.938Z,21.55
2022-07-29T11:02:45.775Z,21.04
2022-07-29T11:05:15.513Z,21.02
2022-07-29T11:08:16.208Z,21.38
2022-07-29T11:11:07.792Z,21.15
2022-07-29T11:13:44.129Z,21.73
2022-07-29T11:16:11.290Z,21.39
2022-07-29T11:21:59.652Z,21.79
2022-07-29T11:24:31.134Z,21.55
2022-07-29T11:30:01.394Z,21.95
2022-07-29T11:32:38.698Z,21.91
2022-07-29T11:35:16.648Z,22.07
2022-07-29T11:38:08.331Z,22.41
2022-07-29T11:40:38.132Z,22.49
2022-07-29T11:43:09.268Z,23.00
2022-07-29T11:45:47.323Z,23.19
2022-07-29T11:48:29.246Z,23.14
2022-07-29T11:50:59.483Z,22.83
2022-07-29T11:53:28.782Z,22.53
2022-07-29T11:55:58.273Z,23.04
2022-07-29T11:58:26.520Z,22.11
2022-07-29T12:00:55.386Z,22.63
2022-07-29T12:03:32.981Z,23.15
2022-07-29T12:06:02.570Z,22.93
2022-07-29T12:07:03.844Z,21.64
2022-07-29T12:08:30.443Z,22.96
2022-07-29T12:10:57.342Z,22.87
2022-07-29T12:13:37.841Z,23.18
2022-07-29T12:16:06.667Z,22.73
2022-07-29T12:18:33.395Z,22.80
2022-07-29T12:21:03.194Z,23.32
2022-07-29T12:23:34.785Z,23.05
2022-07-29T12:26:07.541Z,24.03
2022-07-29T12:28:40.851Z,23.41
2022-07-29T12:31:15.128Z,23.61
2022-07-29T12:34:02.029Z,24.58
2022-07-29T12:36:28.711Z,24.41
2022-07-29T12:38:55.477Z,24.31
2022-07-29T12:41:23.449Z,25.13
2022-07-29T12:43:57.136Z,24.75
2022-07-29T12:46:25.797Z,23.85
2022-07-29T12:48:54.289Z,25.01
2022-07-29T12:51:29.826Z,25.31
2022-07-29T12:54:09.090Z,24.94
2022-07-29T12:56:44.390Z,24.85
2022-07-29T12:59:31.956Z,25.19
2022-07-29T13:01:59.166Z,24.94
2022-07-29T13:04:31.270Z,25.26
2022-07-29T13:07:06.240Z,26.07
2022-07-29T13:09:41.806Z,25.75
2022-07-29T13:12:12.967Z,25.63
2022-07-29T13:14:42.665Z,25.40
2022-07-29T13:17:14.739Z,26.10
2022-07-29T13:19:47.295Z,26.26
2022-07-29T13:22:19.583Z,25.35
2022-07-29T13:24:47.360Z,23.54
2022-07-29T13:27:28.549Z,25.66
2022-07-29T13:29:56.502Z,25.24
2022-07-29T13:32:27.889Z,25.67
2022-07-29T13:35:01.710Z,25.71
2022-07-29T13:37:32.675Z,25.26
2022-07-29T13:39:59.391Z,26.14
2022-07-29T13:42:27.175Z,24.70
2022-07-29T13:44:53.779Z,25.84
2022-07-29T13:47:21.090Z,25.81
2022-07-29T13:49:48.172Z,25.91
2022-07-29T13:52:15.972Z,25.90
2022-07-29T13:54:43.411Z,25.56
2022-07-29T13:57:11.180Z,26.16
2022-07-29T13:59:37.765Z,25.67
2022-07-29T14:02:04.444Z,25.79
2022-07-29T14:04:31.501Z,25.49
2022-07-29T14:06:58.260Z,25.47
2022-07-29T14:09:24.857Z,25.23
2022-07-29T14:11:51.525Z,23.80
2022-07-29T14:14:18.473Z,25.63
2022-07-29T14:16:47.889Z,25.87
2022-07-29T14:19:18.814Z,25.91
2022-07-29T14:21:45.911Z,25.92
2022-07-29T14:24:17.962Z,26.30
2022-07-29T14:26:49.985Z,26.14
2022-07-29T14:29:16.641Z,25.42
2022-07-29T14:31:43.464Z,25.63
2022-07-29T14:34:10.213Z,25.34
2022-07-29T14:36:36.921Z,25.59
2022-07-29T14:39:03.743Z,25.97
2022-07-29T14:41:30.622Z,26.01
2022-07-29T14:43:57.167Z,26.08
2022-07-29T14:46:23.974Z,25.33
2022-07-29T14:48:50.872Z,26.13
2022-07-29T14:51:17.680Z,25.90
2022-07-29T14:53:44.376Z,25.74
2022-07-29T14:56:35.423Z,25.51
2022-07-29T14:58:58.061Z,25.86
2022-07-29T15:01:25.117Z,25.16
2022-07-29T15:03:55.706Z,25.68
2022-07-29T15:06:24.694Z,24.80
2022-07-29T15:08:51.453Z,24.47
2022-07-29T15:11:18.319Z,24.65
2022-07-29T15:13:44.858Z,24.62
2022-07-29T15:16:11.664Z,24.75
2022-07-29T15:18:38.317Z,24.79
2022-07-29T15:21:05.767Z,24.39
2022-07-29T15:23:32.411Z,24.66
2022-07-29T15:25:59.095Z,24.76
2022-07-29T15:28:25.657Z,25.09
2022-07-29T15:30:52.375Z,25.10
2022-07-29T15:33:18.911Z,25.21
2022-07-29T15:35:45.643Z,24.90
2022-07-29T15:38:12.253Z,24.64
2022-07-29T15:40:39.829Z,24.75
2022-07-29T15:43:06.778Z,24.78
2022-07-29T15:45:43.851Z,24.35
2022-07-29T15:48:14.778Z,24.38
2022-07-29T15:50:41.653Z,24.30
2022-07-29T15:53:08.233Z,24.11
2022-07-29T15:55:34.963Z,23.76
2022-07-29T15:58:01.514Z,24.17
2022-07-29T16:00:28.272Z,24.46
2022-07-29T16:02:54.955Z,24.63
2022-07-29T16:05:21.753Z,23.67
2022-07-29T16:07:48.397Z,24.12
2022-07-29T16:10:15.231Z,24.36
2022-07-29T16:12:41.776Z,24.46
2022-07-29T16:15:10.253Z,24.28
2022-07-29T16:17:38.433Z,24.51
2022-07-29T16:20:05.856Z,23.90
2022-07-29T16:22:32.525Z,23.68
2022-07-29T16:24:59.386Z,24.08
2022-07-29T16:27:25.982Z,23.92
2022-07-29T16:30:02.261Z,23.54
2022-07-29T16:32:29.198Z,23.86
2022-07-29T16:34:57.163Z,23.95
2022-07-29T16:37:23.789Z,23.67
2022-07-29T16:39:50.429Z,23.46
2022-07-29T16:42:30.965Z,23.29
2022-07-29T16:45:04.586Z,23.26
2022-07-29T16:47:31.779Z,23.03
2022-07-29T16:49:58.664Z,23.26
2022-07-29T16:52:25.630Z,23.14
2022-07-29T16:54:52.859Z,23.23
2022-07-29T16:57:19.449Z,23.26
2022-07-29T16:59:46.364Z,23.18
2022-07-29T17:02:13.014Z,23.48
2022-07-29T17:04:39.686Z,22.30
2022-07-29T17:07:06.334Z,22.96
2022-07-29T17:09:32.976Z,23.07
2022-07-29T17:11:59.689Z,22.69
2022-07-29T17:14:29.231Z,22.98
2022-07-29T17:17:02.298Z,23.00
2022-07-29T17:19:35.426Z,22.98
2022-07-29T17:22:10.519Z,23.23
2022-07-29T17:24:41.250Z,23.53
2022-07-29T17:27:10.072Z,23.51
2022-07-29T17:29:36.947Z,23.14
2022-07-29T17:32:03.728Z,23.50
2022-07-29T17:34:30.751Z,23.58
2022-07-29T17:36:57.953Z,23.13
2022-07-29T17:39:24.745Z,23.11
2022-07-29T17:41:51.375Z,23.01
2022-07-29T17:44:18.043Z,22.83
2022-07-29T17:46:44.795Z,22.10
2022-07-29T17:49:11.611Z,23.09
2022-07-29T17:51:38.307Z,23.09
2022-07-29T17:54:05.211Z,22.95
2022-07-29T17:56:31.773Z,22.70
2022-07-29T17:58:58.430Z,23.34
2022-07-29T18:01:25.066Z,23.42
2022-07-29T18:03:51.815Z,22.94
2022-07-29T18:06:18.680Z,23.34
2022-07-29T18:08:45.335Z,23.20
2022-07-29T18:11:14.661Z,22.88
2022-07-29T18:13:42.203Z,23.35
2022-07-29T18:16:08.983Z,23.05
2022-07-29T18:18:35.969Z,21.13
2022-07-29T18:21:03.055Z,21.39
2022-07-29T18:23:30.051Z,20.32
2022-07-29T18:25:56.606Z,20.05
2022-07-29T18:28:23.626Z,19.66
2022-07-29T18:30:50.478Z,19.09
2022-07-29T18:33:22.052Z,18.60
2022-07-29T18:35:51.493Z,17.92
2022-07-29T18:38:18.428Z,17.58
2022-07-29T18:40:46.160Z,17.65
2022-07-29T18:43:13.803Z,17.87
2022-07-29T18:45:40.638Z,17.59
2022-07-29T18:48:12.785Z,17.31
2022-07-29T18:50:40.659Z,17.20
2022-07-29T18:53:07.305Z,17.00
2022-07-29T18:55:34.080Z,17.08
2022-07-29T18:58:00.715Z,16.25
2022-07-29T19:00:27.981Z,16.59
2022-07-29T19:02:55.087Z,16.77
2022-07-29T19:05:22.365Z,16.74
2022-07-29T19:07:48.937Z,16.21
2022-07-29T19:10:15.708Z,16.33
2022-07-29T19:12:42.377Z,16.41
2022-07-29T19:15:09.595Z,16.03
2022-07-29T19:17:36.201Z,15.51
2022-07-29T19:20:03.136Z,15.46
2022-07-29T19:22:31.042Z,14.98
2022-07-29T19:24:57.734Z,14.88
2022-07-29T19:27:24.408Z,14.95
2022-07-29T19:29:51.095Z,14.93
2022-07-29T19:32:24.683Z,14.76
2022-07-29T19:34:52.950Z,14.30
2022-07-29T19:37:19.584Z,14.03
2022-07-29T19:39:46.280Z,14.03
2022-07-29T19:42:12.974Z,14.15
2022-07-29T19:44:39.857Z,14.27
2022-07-29T19:47:06.426Z,14.33
2022-07-29T19:49:33.153Z,14.91
2022-07-29T19:51:59.701Z,14.70
2022-07-29T19:54:26.422Z,14.50
2022-07-29T19:56:53.082Z,14.79
2022-07-29T19:59:20.289Z,14.34
2022-07-29T20:01:51.368Z,14.63
2022-07-29T20:04:18.006Z,14.16
2022-07-29T20:06:44.786Z,14.15
2022-07-29T20:09:16.781Z,13.91
2022-07-29T20:11:47.564Z,13.98
2022-07-29T20:14:14.157Z,13.77
2022-07-29T20:16:40.848Z,14.35
2022-07-29T20:19:07.517Z,13.99
2022-07-29T20:21:34.136Z,14.12
2022-07-29T20:24:00.704Z,14.28
2022-07-29T20:26:27.311Z,14.61
2022-07-29T20:28:53.864Z,14.62
2022-07-29T20:31:20.659Z,14.63
2022-07-29T20:33:47.823Z,14.78
2022-07-29T20:36:14.904Z,15.01
2022-07-29T20:38:41.469Z,14.57
2022-07-29T20:41:08.332Z,14.55
2022-07-29T20:43:36.022Z,14.35
2022-07-29T20:46:06.026Z,14.46
2022-07-29T20:48:32.658Z,14.86
2022-07-29T20:50:59.372Z,14.42
2022-07-29T20:53:25.941Z,14.58
2022-07-29T20:55:52.716Z,14.63
2022-07-29T20:58:19.373Z,14.97
2022-07-29T21:00:46.331Z,14.84
2022-07-29T21:03:13.516Z,15.23
2022-07-29T21:05:40.566Z,15.37
2022-07-29T21:08:09.996Z,14.97
2022-07-29T21:10:36.918Z,15.20
2022-07-29T21:13:03.490Z,15.29
2022-07-29T21:15:30.287Z,15.14
2022-07-29T21:17:56.972Z,15.29
2022-07-29T21:20:23.641Z,15.05
2022-07-29T21:22:50.231Z,14.77
2022-07-29T21:25:16.871Z,14.97
2022-07-29T21:27:45.907Z,15.02
2022-07-29T21:30:12.625Z,14.95
2022-07-29T21:32:39.428Z,15.24
2022-07-29T21:35:08.428Z,15.17
2022-07-29T21:37:49.328Z,14.97
2022-07-29T21:40:16.306Z,15.54
2022-07-29T21:42:45.630Z,15.24
2022-07-29T21:45:12.490Z,15.24
2022-07-29T21:47:51.902Z,14.78
2022-07-29T21:50:21.902Z,14.94
2022-07-29T21:52:48.538Z,15.13
2022-07-29T21:55:15.370Z,14.53
2022-07-29T21:57:45.236Z,14.97
2022-07-29T22:00:15.802Z,14.63
2022-07-29T22:02:43.855Z,14.82
2022-07-29T22:05:11.998Z,14.87
2022-07-29T22:07:56.113Z,14.82
2022-07-29T22:10:28.621Z,13.19
2022-07-29T22:13:02.535Z,14.32
2022-07-29T22:15:39.856Z,14.12
2022-07-29T22:18:11.839Z,13.60
2022-07-29T22:20:40.283Z,13.33
2022-07-29T22:23:08.316Z,13.48
2022-07-29T22:25:37.484Z,12.99
2022-07-29T22:28:05.761Z,13.04
2022-07-29T22:30:32.679Z,12.80
2022-07-29T22:32:59.305Z,13.38
2022-07-29T22:35:29.187Z,13.57
2022-07-29T22:37:55.784Z,14.01
2022-07-29T22:40:35.971Z,13.85
2022-07-29T22:43:06.382Z,14.06
2022-07-29T22:45:40.656Z,14.16
2022-07-29T22:48:12.079Z,14.17
2022-07-29T22:50:38.876Z,14.04
2022-07-29T22:53:05.889Z,14.76
2022-07-29T22:55:32.643Z,14.85
2022-07-29T22:57:59.356Z,14.98
2022-07-29T23:00:26.018Z,14.63
2022-07-29T23:02:52.940Z,15.01
2022-07-29T23:05:19.771Z,15.01
2022-07-29T23:07:46.549Z,14.99
2022-07-29T23:10:13.357Z,15.06
2022-07-29T23:12:42.433Z,14.92
2022-07-29T23:15:09.299Z,15.31
2022-07-29T23:17:36.877Z,15.38
2022-07-29T23:20:07.765Z,15.30
2022-07-29T23:22:36.019Z,14.49
2022-07-29T23:25:02.899Z,14.27
2022-07-29T23:27:29.702Z,14.52
2022-07-29T23:29:56.497Z,15.07
2022-07-29T23:32:23.159Z,15.07
2022-07-29T23:34:50.312Z,14.43
2022-07-29T23:37:17.043Z,14.79
2022-07-29T23:39:43.636Z,14.71
2022-07-29T23:42:10.281Z,14.78
2022-07-29T23:44:36.917Z,14.91
2022-07-29T23:47:04.094Z,14.56
2022-07-29T23:49:30.886Z,14.97
2022-07-29T23:51:57.749Z,14.87
2022-07-29T23:54:24.450Z,14.22
2022-07-29T23:56:51.195Z,15.07
2022-07-29T23:59:17.846Z,14.79
